Airport View

Enter AWOS ICAO identifier for current METAR.

ex. KFNL

KSLH 011315Z AUTO 31009KT 7SM -RA SCT012 BKN031 OVC049 10/09 A2977 RMK AO2 T01000088

1 Oct 2020 13:33

Frequency: 118.175

Phone: 231-627-4671

Other Area AWOS: KPLN - KMCD - KMGN - KPZQ

TAF KPLN 011120Z 0112/0212 29009KT P6SM VCSH SCT025 BKN040 FM011400 33010G18KT P6SM -SHRA BKN022 FM011800 34011G20KT P6SM VCSH BKN028 FM020000 34009KT P6SM BKN035 FM020600 VRB03KT P6SM SCT040